Adelanto, California
Current Conditions -  °F | °C
As of 1:15 AM on Saturday 01 Nov 2014 (Local Time) from KVCV Reporting Station
Clear Clear  
Wind Chill: 55°   Ceiling: Unl
Heat Index: 55°   Visibility: 10mi
Dew Point: 46°   Wind: 29mph
Humidity: 72%   Direction: 190°S
Pressure: 29.79"   Gusts: 35mph
Location:  34.58°N, 117.41°W
Report Text: KVCV 010815Z AUTO 19025G30KT 10SM CLR 13/08 A2979 RMK AO2
Loading
Personal Weather Stations






























Interactive Weather Map
Tropical Storm Tracking
New forecast layout! Learn more

10-Day Weather Forecast

Advertisements
Track Severe Weather on mobile